• Join FlightAware (Why Join?)
  • Login
  • US Flag 
10:32AM EDT


 

Airport Tracker/Info


-or-


 

Live Flight TrackerFlight Track Log ✈ UPS1121 ✈ 14-Jun-2013 ✈ KALB - KBDL

Flight Track Log - Related Links

Times and Time Zones

All times are in EDT time to prevent confusion due to time zone crossing. See the UPS1121 flight status page for this flight to view local times or setup timezone preferences in your user account.

Time Position Orientation Groundspeed Altitude Reporting Facility
EDT Latitude Longitude Course Direction KTS MPH feet Rate Location/Type
09:37PM 42.7278 -73.8081 161° South 167 192 1,900  Level Boston Center
09:38PM 42.6967 -73.7933 161° South 204 235 3,200 2,520 Climbing Boston Center
09:39PM 42.6475 -73.7103 129° Southeast 272 313 6,500 3,240 Climbing Boston Center
09:40PM 42.5883 -73.6103 129° Southeast 305 351 10,300 2,220 Climbing Boston Center
09:41PM 42.5350 -73.5219 129° Southeast 328 377 11,000 480 Climbing Boston Center
09:41PM 42.5061 -73.4736 129° Southeast 354 407 11,000  Level Boston Center
09:42PM 42.4506 -73.3911 132° Southeast 355 409 11,000  Level Boston Center
09:42PM 42.4258 -73.3597 137° Southeast 359 413 11,000  Level Boston Center
09:43PM 42.3806 -73.2944 133° Southeast 361 415 11,000  Level Boston Center
09:43PM 42.3558 -73.2633 137° Southeast 360 414 11,000  Level Boston Center
09:44PM 42.3331 -73.2264 130° Southeast 356 410 11,000 -300 Level Boston Center
09:44PM 42.2814 -73.1725 142° Southeast 360 414 10,700 -900 Descending Boston Center
09:45PM 42.2356 -73.1383 151° Southeast 356 410 10,100 -720 Descending Boston Center
09:46PM 42.1983 -73.1183 158° South 331 381 10,000 -1,020 Descending Boston Center
09:46PM 42.1486 -73.0842 153° Southeast 326 375 9,100 -1,380 Descending Boston Center
09:47PM 42.1214 -73.0697 159° South 308 354 8,600 -1,440 Descending Boston Center
09:47PM 42.0800 -73.0386 151° Southeast 310 357 7,700 -1,500 Descending Boston Center
09:48PM 42.0383 -73.0158 158° South 304 350 7,100 -1,440 Descending Boston Center
09:48PM 41.9989 -72.9903 154° Southeast 304 350 6,300 -1,320 Descending Boston Center
09:48PM 41.9719 -72.9733 155° Southeast 296 341 5,900 -1,440 Descending Boston Center
09:49PM 41.9219 -72.9450 157° South 304 350 4,900 -1,620 Descending Boston Center
09:49PM 41.8969 -72.9308 157° South 296 341 4,300 -1,740 Descending Boston Center
09:50PM 41.8492 -72.8972 152° Southeast 299 344 3,200 -1,380 Descending Boston Center
09:50PM 41.8306 -72.8775 142° Southeast 272 313 2,900 -900 Descending Boston Center
09:51PM 41.8308 -72.8217 90° East 215 247 2,300 -840 Descending Boston Center
09:51PM 41.8497 -72.8081 28° Northeast 209 241 2,100 -540 Descending Boston Center
09:52PM 41.8706 -72.7747 50° Northeast 145 167 1,800 -540 Descending Boston Center
09:52PM 41.8789 -72.7692 26° Northeast 146 168 1,600 -540 Descending Boston Center
09:53PM 41.8956 -72.7442 48° Northeast 124 143 1,300 -600 Descending Boston Center
09:53PM 41.9019 -72.7386 33° Northeast 117 135 1,000 -720 Descending Boston Center
09:54PM 41.9208 -72.7164 41° Northeast 118 136 600 -720 Descending Boston Center
09:55PM 41.9292 -72.7025 51° Northeast 121 139 300 -240 Descending Boston Center
09:55PM 41.9375 -72.6883 52° Northeast 113 130 400 120 Climbing Boston Center